createdAt,value
2022-12-25T00:00:55.657Z,5.70
2022-12-25T00:03:22.781Z,5.60
2022-12-25T00:05:49.661Z,5.60
2022-12-25T00:08:16.403Z,5.60
2022-12-25T00:10:45.483Z,5.50
2022-12-25T00:13:12.544Z,5.40
2022-12-25T00:15:40.754Z,5.40
2022-12-25T00:18:07.630Z,5.40
2022-12-25T00:20:34.422Z,5.40
2022-12-25T00:25:47.812Z,5.20
2022-12-25T00:31:05.308Z,5.10
2022-12-25T00:33:34.078Z,5.10
2022-12-25T00:36:01.939Z,5.10
2022-12-25T00:38:29.115Z,5.10
2022-12-25T00:40:55.888Z,5.10
2022-12-25T00:43:22.944Z,5.10
2022-12-25T00:46:01.672Z,5.10
2022-12-25T00:51:16.333Z,4.90
2022-12-25T00:53:43.139Z,4.80
2022-12-25T00:56:10.653Z,4.60
2022-12-25T00:58:37.440Z,4.50
2022-12-25T01:01:04.384Z,4.50
2022-12-25T01:03:31.229Z,4.40
2022-12-25T01:06:01.188Z,4.40
2022-12-25T01:11:16.723Z,4.60
2022-12-25T01:13:43.494Z,4.60
2022-12-25T01:16:11.416Z,4.60
2022-12-25T01:18:38.823Z,4.60
2022-12-25T01:21:07.472Z,4.40
2022-12-25T01:26:23.619Z,4.30
2022-12-25T01:31:37.761Z,4.30
2022-12-25T01:36:51.196Z,4.00
2022-12-25T01:42:04.666Z,3.90
2022-12-25T01:47:24.016Z,3.80
2022-12-25T01:52:37.775Z,3.70
2022-12-25T01:55:05.394Z,3.80
2022-12-25T01:57:35.986Z,3.90
2022-12-25T02:00:09.739Z,3.90
2022-12-25T02:02:37.283Z,4.10
2022-12-25T02:05:10.137Z,3.90
2022-12-25T02:07:38.262Z,3.90
2022-12-25T02:10:05.511Z,3.70
2022-12-25T02:12:34.668Z,3.80
2022-12-25T02:18:16.298Z,3.70
2022-12-25T02:20:49.871Z,3.80
2022-12-25T02:24:14.141Z,3.90
2022-12-25T02:27:04.972Z,3.80
2022-12-25T02:32:51.674Z,3.80
2022-12-25T02:35:25.811Z,3.80
2022-12-25T02:38:07.640Z,3.80
2022-12-25T02:40:51.630Z,3.80
2022-12-25T02:43:28.048Z,3.80
2022-12-25T02:46:02.807Z,3.80
2022-12-25T02:48:36.873Z,3.80
2022-12-25T02:51:08.212Z,3.80
2022-12-25T02:53:36.030Z,3.70
2022-12-25T02:56:03.387Z,3.70
2022-12-25T02:58:34.022Z,3.70
2022-12-25T03:01:11.940Z,3.80
2022-12-25T03:06:32.128Z,3.80
2022-12-25T03:09:02.345Z,3.70
2022-12-25T03:11:29.185Z,3.70
2022-12-25T03:14:06.022Z,3.70
2022-12-25T03:16:32.879Z,3.70
2022-12-25T03:19:00.136Z,3.80
2022-12-25T03:21:27.007Z,3.80
2022-12-25T03:24:00.204Z,3.90
2022-12-25T03:26:27.314Z,3.90
2022-12-25T03:28:54.076Z,3.90
2022-12-25T03:31:43.220Z,3.90
2022-12-25T03:34:13.033Z,3.90
2022-12-25T03:36:51.492Z,4.00
2022-12-25T03:39:33.072Z,3.90
2022-12-25T03:42:02.376Z,3.90
2022-12-25T03:44:36.084Z,3.90
2022-12-25T03:47:15.649Z,3.90
2022-12-25T03:50:09.393Z,3.90
2022-12-25T03:52:38.337Z,4.00
2022-12-25T03:55:10.281Z,4.00
2022-12-25T03:57:37.045Z,4.00
2022-12-25T04:00:04.559Z,4.00
2022-12-25T04:02:31.484Z,4.00
2022-12-25T04:04:58.306Z,4.10
2022-12-25T04:07:25.151Z,4.10
2022-12-25T04:09:51.958Z,4.20
2022-12-25T04:12:18.720Z,4.20
2022-12-25T04:14:45.469Z,4.20
2022-12-25T04:17:12.228Z,4.10
2022-12-25T04:19:39.007Z,4.20
2022-12-25T04:22:05.836Z,4.20
2022-12-25T04:24:32.606Z,4.20
2022-12-25T04:26:59.368Z,4.10
2022-12-25T04:29:26.116Z,4.00
2022-12-25T04:31:52.894Z,4.10
2022-12-25T04:34:19.694Z,4.00
2022-12-25T04:36:46.416Z,4.00
2022-12-25T04:41:39.961Z,3.90
2022-12-25T04:44:06.694Z,3.90
2022-12-25T04:49:20.181Z,3.70
2022-12-25T04:54:13.625Z,3.60
2022-12-25T04:56:45.606Z,3.50
2022-12-25T05:01:59.772Z,3.20
2022-12-25T05:07:13.323Z,3.20
2022-12-25T05:09:40.035Z,3.10
2022-12-25T05:12:06.783Z,3.00
2022-12-25T05:14:33.635Z,2.90
2022-12-25T05:17:00.420Z,2.80
2022-12-25T05:19:27.299Z,2.80
2022-12-25T05:21:54.700Z,2.80
2022-12-25T05:24:26.331Z,2.80
2022-12-25T05:26:53.355Z,2.80
2022-12-25T05:29:20.297Z,2.80
2022-12-25T05:31:47.130Z,2.80
2022-12-25T05:34:13.913Z,2.80
2022-12-25T05:36:40.736Z,2.80
2022-12-25T05:39:07.458Z,2.90
2022-12-25T05:41:35.023Z,2.90
2022-12-25T05:44:02.091Z,2.90
2022-12-25T05:46:28.935Z,2.80
2022-12-25T05:48:55.743Z,2.80
2022-12-25T05:51:22.526Z,2.80
2022-12-25T05:53:49.289Z,2.80
2022-12-25T05:56:16.031Z,2.90
2022-12-25T05:58:42.835Z,2.80
2022-12-25T06:01:15.454Z,2.80
2022-12-25T06:03:42.520Z,2.90
2022-12-25T06:06:10.003Z,2.80
2022-12-25T06:08:36.820Z,2.90
2022-12-25T06:11:05.523Z,2.80
2022-12-25T06:13:33.778Z,2.80
2022-12-25T06:16:07.414Z,2.80
2022-12-25T06:18:38.591Z,2.80
2022-12-25T06:21:09.595Z,2.90
2022-12-25T06:26:24.080Z,2.80
2022-12-25T06:31:37.561Z,2.80
2022-12-25T06:34:04.393Z,2.80
2022-12-25T06:36:31.156Z,2.80
2022-12-25T06:39:01.033Z,2.80
2022-12-25T06:44:15.795Z,2.80
2022-12-25T06:46:42.568Z,2.80
2022-12-25T06:49:10.427Z,2.70
2022-12-25T06:51:37.249Z,2.70
2022-12-25T06:54:04.505Z,2.70
2022-12-25T06:56:32.529Z,2.70
2022-12-25T06:59:07.540Z,2.70
2022-12-25T07:01:50.746Z,2.80
2022-12-25T07:04:25.694Z,2.80
2022-12-25T07:09:19.632Z,2.80
2022-12-25T07:11:46.438Z,2.80
2022-12-25T07:14:24.491Z,2.70
2022-12-25T07:16:51.840Z,2.80
2022-12-25T07:19:18.675Z,2.80
2022-12-25T07:21:45.469Z,2.80
2022-12-25T07:24:12.238Z,2.80
2022-12-25T07:26:38.974Z,2.80
2022-12-25T07:29:05.751Z,2.80
2022-12-25T07:31:32.565Z,2.90
2022-12-25T07:33:59.345Z,2.90
2022-12-25T07:39:13.116Z,2.90
2022-12-25T07:44:06.718Z,2.90
2022-12-25T07:46:33.496Z,3.00
2022-12-25T07:49:00.530Z,3.00
2022-12-25T07:54:14.189Z,3.10
2022-12-25T07:56:40.950Z,3.20
2022-12-25T07:59:07.713Z,3.10
2022-12-25T08:01:34.910Z,3.20
2022-12-25T08:04:02.436Z,3.20
2022-12-25T08:06:35.369Z,3.20
2022-12-25T08:09:08.573Z,3.40
2022-12-25T08:14:22.569Z,3.40
2022-12-25T08:19:36.050Z,3.50
2022-12-25T08:22:02.925Z,3.50
2022-12-25T08:24:29.732Z,3.60
2022-12-25T08:26:56.555Z,3.60
2022-12-25T08:29:23.286Z,3.60
2022-12-25T08:31:50.082Z,3.70
2022-12-25T08:34:16.939Z,3.60
2022-12-25T08:36:43.694Z,3.70
2022-12-25T08:41:57.109Z,3.70
2022-12-25T08:47:10.543Z,3.70
2022-12-25T08:49:37.457Z,3.80
2022-12-25T08:54:31.192Z,3.70
2022-12-25T08:57:02.687Z,3.80
2022-12-25T08:59:33.633Z,3.70
2022-12-25T09:02:00.476Z,3.80
2022-12-25T09:04:27.421Z,4.00
2022-12-25T09:09:20.969Z,4.50
2022-12-25T09:11:49.261Z,4.40
2022-12-25T09:17:02.723Z,4.80
2022-12-25T09:22:16.182Z,5.20
2022-12-25T09:27:09.764Z,5.20
2022-12-25T09:29:36.599Z,5.40
2022-12-25T09:32:03.417Z,5.30
2022-12-25T09:34:30.232Z,5.30
2022-12-25T09:36:57.025Z,5.20
2022-12-25T09:39:23.921Z,5.20
2022-12-25T09:44:34.010Z,5.10
2022-12-25T09:50:50.156Z,5.00
2022-12-25T09:53:23.693Z,4.90
2022-12-25T09:56:06.598Z,5.00
2022-12-25T09:58:34.231Z,5.00
2022-12-25T10:01:19.162Z,5.00
2022-12-25T10:07:30.065Z,5.20
2022-12-25T10:10:03.318Z,5.30
2022-12-25T10:12:41.759Z,5.30
2022-12-25T10:15:58.985Z,5.20
2022-12-25T10:19:07.338Z,5.20
2022-12-25T10:21:34.283Z,5.30
2022-12-25T10:24:20.636Z,5.40
2022-12-25T10:26:48.815Z,5.30
2022-12-25T10:29:18.909Z,5.40
2022-12-25T10:34:37.107Z,5.30
2022-12-25T10:39:30.727Z,5.30
2022-12-25T10:42:05.774Z,5.30
2022-12-25T10:44:32.553Z,5.30
2022-12-25T10:47:01.046Z,5.30
2022-12-25T10:49:38.399Z,5.30
2022-12-25T10:52:24.088Z,5.30
2022-12-25T10:54:51.330Z,5.30
2022-12-25T10:57:21.213Z,5.20
2022-12-25T10:59:56.704Z,5.30
2022-12-25T11:02:34.695Z,5.30
2022-12-25T11:05:08.018Z,5.30
2022-12-25T11:07:37.004Z,5.20
2022-12-25T11:10:19.310Z,5.20
2022-12-25T11:12:46.730Z,5.30
2022-12-25T11:15:42.274Z,5.20
2022-12-25T11:18:27.532Z,5.20
2022-12-25T11:20:56.673Z,5.20
2022-12-25T11:23:24.937Z,5.20
2022-12-25T11:25:58.962Z,5.20
2022-12-25T11:28:28.289Z,5.20
2022-12-25T11:31:17.074Z,5.20
2022-12-25T11:33:52.603Z,5.40
2022-12-25T11:36:31.598Z,5.30
2022-12-25T11:42:00.907Z,5.40
2022-12-25T11:44:41.304Z,5.30
2022-12-25T11:47:19.775Z,5.40
2022-12-25T11:50:00.014Z,5.40
2022-12-25T11:52:33.311Z,5.40
2022-12-25T11:55:15.419Z,5.40
2022-12-25T11:57:45.606Z,5.50
2022-12-25T12:00:15.544Z,5.40
2022-12-25T12:02:56.443Z,5.40
2022-12-25T12:05:59.829Z,5.40
2022-12-25T12:08:26.652Z,5.40
2022-12-25T12:13:45.928Z,5.50
2022-12-25T12:16:12.750Z,5.40
2022-12-25T12:18:40.438Z,5.60
2022-12-25T12:21:22.927Z,5.50
2022-12-25T12:24:00.416Z,5.40
2022-12-25T12:26:29.524Z,5.50
2022-12-25T12:29:00.861Z,5.50
2022-12-25T12:31:59.696Z,5.40
2022-12-25T12:37:27.047Z,5.40
2022-12-25T12:42:46.376Z,5.40
2022-12-25T12:45:34.725Z,5.40
2022-12-25T12:48:02.473Z,5.40
2022-12-25T12:50:47.396Z,5.40
2022-12-25T12:53:23.349Z,5.40
2022-12-25T12:55:51.768Z,5.40
2022-12-25T12:58:31.987Z,5.30
2022-12-25T13:01:18.888Z,5.40
2022-12-25T13:04:06.382Z,5.40
2022-12-25T13:06:47.866Z,5.30
2022-12-25T13:09:41.033Z,5.30
2022-12-25T13:12:08.798Z,5.40
2022-12-25T13:14:36.105Z,5.30
2022-12-25T13:17:07.842Z,5.30
2022-12-25T13:19:36.713Z,5.40
2022-12-25T13:25:02.735Z,5.40
2022-12-25T13:27:32.151Z,5.40
2022-12-25T13:29:59.585Z,5.30
2022-12-25T13:32:32.956Z,5.30
2022-12-25T13:35:00.630Z,5.40
2022-12-25T13:37:30.332Z,5.40
2022-12-25T13:42:49.991Z,5.40
2022-12-25T13:45:24.850Z,5.40
2022-12-25T13:47:55.501Z,5.40
2022-12-25T13:50:29.248Z,5.40
2022-12-25T13:52:58.385Z,5.30
2022-12-25T13:55:27.862Z,5.40
2022-12-25T14:00:50.115Z,5.40
2022-12-25T14:03:42.162Z,5.40
2022-12-25T14:06:20.164Z,5.40
2022-12-25T14:08:48.091Z,5.40
2022-12-25T14:11:16.807Z,5.40
2022-12-25T14:16:33.669Z,5.30
2022-12-25T14:21:55.787Z,5.30
2022-12-25T14:27:19.445Z,5.20
2022-12-25T14:29:48.347Z,5.20
2022-12-25T14:32:20.771Z,5.30
2022-12-25T14:34:51.359Z,5.20
2022-12-25T14:37:27.297Z,5.20
2022-12-25T14:40:06.864Z,5.30
2022-12-25T14:42:34.923Z,5.30
2022-12-25T14:45:01.646Z,5.30
2022-12-25T14:47:29.165Z,5.40
2022-12-25T14:49:56.241Z,5.40
2022-12-25T14:52:27.768Z,5.40
2022-12-25T14:57:49.557Z,5.30
2022-12-25T15:00:24.745Z,5.30
2022-12-25T15:02:54.411Z,5.30
2022-12-25T15:05:30.961Z,5.40
2022-12-25T15:08:06.346Z,5.40
2022-12-25T15:16:19.541Z,5.40
2022-12-25T15:18:47.345Z,5.40
2022-12-25T15:21:15.929Z,5.40
2022-12-25T15:23:42.847Z,5.40
2022-12-25T15:26:13.623Z,5.40
2022-12-25T15:31:30.520Z,5.40
2022-12-25T15:33:59.279Z,5.40
2022-12-25T15:36:26.782Z,5.50
2022-12-25T15:38:54.236Z,5.60
2022-12-25T15:41:27.573Z,5.50
2022-12-25T15:46:41.328Z,5.60
2022-12-25T15:51:56.981Z,5.60
2022-12-25T15:57:20.868Z,5.60
2022-12-25T15:59:47.854Z,5.60
2022-12-25T16:02:17.528Z,5.70
2022-12-25T16:04:44.628Z,5.70
2022-12-25T16:07:29.400Z,5.60
2022-12-25T16:09:56.162Z,5.60
2022-12-25T16:15:12.673Z,5.60
2022-12-25T16:20:26.496Z,5.70
2022-12-25T16:22:53.253Z,5.60
2022-12-25T16:25:20.705Z,5.70
2022-12-25T16:27:47.757Z,5.70
2022-12-25T16:30:16.621Z,5.70
2022-12-25T16:32:44.819Z,5.70
2022-12-25T16:35:12.045Z,5.70
2022-12-25T16:37:39.406Z,5.70
2022-12-25T16:40:07.878Z,5.70
2022-12-25T16:42:34.653Z,5.70
2022-12-25T16:45:01.497Z,5.70
2022-12-25T16:47:28.273Z,5.70
2022-12-25T16:49:55.048Z,5.70
2022-12-25T16:52:21.811Z,5.70
2022-12-25T16:54:48.584Z,5.80
2022-12-25T16:57:15.329Z,5.80
2022-12-25T16:59:42.067Z,5.80
2022-12-25T17:02:14.230Z,5.80
2022-12-25T17:04:41.099Z,5.80
2022-12-25T17:07:07.874Z,5.80
2022-12-25T17:09:40.343Z,5.80
2022-12-25T17:12:10.583Z,5.80
2022-12-25T17:14:37.393Z,5.90
2022-12-25T17:19:50.850Z,5.80
2022-12-25T17:25:04.593Z,5.90
2022-12-25T17:30:18.936Z,5.80
2022-12-25T17:32:45.701Z,5.80
2022-12-25T17:35:12.516Z,5.80
2022-12-25T17:37:39.235Z,5.80
2022-12-25T17:40:06.724Z,5.80
2022-12-25T17:42:33.518Z,5.80
2022-12-25T17:45:00.282Z,5.80
2022-12-25T17:47:27.107Z,5.80
2022-12-25T17:52:40.510Z,5.80
2022-12-25T17:55:07.669Z,5.80
2022-12-25T17:57:34.532Z,5.80
2022-12-25T18:00:01.307Z,5.70
2022-12-25T18:02:28.295Z,5.80
2022-12-25T18:04:55.147Z,5.80
2022-12-25T18:07:21.885Z,5.80
2022-12-25T18:09:48.700Z,5.80
2022-12-25T18:12:15.506Z,5.80
2022-12-25T18:14:42.279Z,5.80
2022-12-25T18:17:09.168Z,5.80
2022-12-25T18:19:35.920Z,5.80
2022-12-25T18:22:02.690Z,5.80
2022-12-25T18:24:29.452Z,5.80
2022-12-25T18:26:56.232Z,5.90
2022-12-25T18:29:23.038Z,5.90
2022-12-25T18:31:49.839Z,5.80
2022-12-25T18:34:16.625Z,5.90
2022-12-25T18:36:43.408Z,5.90
2022-12-25T18:39:13.126Z,5.90
2022-12-25T18:41:39.910Z,5.90
2022-12-25T18:44:06.652Z,5.90
2022-12-25T18:46:33.435Z,5.90
2022-12-25T18:49:00.230Z,5.90
2022-12-25T18:51:34.758Z,5.90
2022-12-25T18:56:53.235Z,5.90
2022-12-25T19:02:07.773Z,5.90
2022-12-25T19:07:22.775Z,5.90
2022-12-25T19:09:50.046Z,5.90
2022-12-25T19:12:16.943Z,5.90
2022-12-25T19:14:47.355Z,5.90
2022-12-25T19:20:01.992Z,5.90
2022-12-25T19:22:28.736Z,5.90
2022-12-25T19:24:55.515Z,5.90
2022-12-25T19:27:22.275Z,6.00
2022-12-25T19:29:49.018Z,6.10
2022-12-25T19:32:15.797Z,6.10
2022-12-25T19:34:42.585Z,6.00
2022-12-25T19:37:09.406Z,6.10
2022-12-25T19:39:36.149Z,6.00
2022-12-25T19:42:02.943Z,6.10
2022-12-25T19:44:29.702Z,6.10
2022-12-25T19:46:56.591Z,6.10
2022-12-25T19:49:23.348Z,6.10
2022-12-25T19:51:50.111Z,6.10
2022-12-25T19:56:44.283Z,6.10
2022-12-25T19:59:12.401Z,6.10
2022-12-25T20:01:39.445Z,6.10
2022-12-25T20:04:07.791Z,6.20
2022-12-25T20:06:36.717Z,6.20
2022-12-25T20:11:53.270Z,6.20
2022-12-25T20:14:20.143Z,6.20
2022-12-25T20:16:47.066Z,6.20
2022-12-25T20:19:14.459Z,6.20
2022-12-25T20:21:41.581Z,6.20
2022-12-25T20:24:09.155Z,6.20
2022-12-25T20:26:36.815Z,6.20
2022-12-25T20:29:04.336Z,6.20
2022-12-25T20:31:33.507Z,6.20
2022-12-25T20:34:05.767Z,6.20
2022-12-25T20:36:36.732Z,6.20
2022-12-25T20:39:08.723Z,6.20
2022-12-25T20:44:22.311Z,6.20
2022-12-25T20:46:49.136Z,6.20
2022-12-25T20:49:15.901Z,6.20
2022-12-25T20:51:42.687Z,6.20
2022-12-25T20:54:10.146Z,6.30
2022-12-25T20:56:37.185Z,6.30
2022-12-25T20:59:03.987Z,6.20
2022-12-25T21:01:31.158Z,6.30
2022-12-25T21:06:45.191Z,6.30
2022-12-25T21:11:58.695Z,6.20
2022-12-25T21:14:25.490Z,6.30
2022-12-25T21:16:52.272Z,6.30
2022-12-25T21:19:19.089Z,6.30
2022-12-25T21:21:45.837Z,6.30
2022-12-25T21:24:12.673Z,6.30
2022-12-25T21:26:44.462Z,6.30
2022-12-25T21:32:01.183Z,6.30
2022-12-25T21:34:29.745Z,6.30
2022-12-25T21:36:56.490Z,6.30
2022-12-25T21:39:23.209Z,6.30
2022-12-25T21:44:39.314Z,6.30
2022-12-25T21:47:06.080Z,6.40
2022-12-25T21:49:32.876Z,6.40
2022-12-25T21:51:59.661Z,6.40
2022-12-25T21:54:26.421Z,6.30
2022-12-25T21:56:53.232Z,6.40
2022-12-25T21:59:21.726Z,6.30
2022-12-25T22:01:49.876Z,6.40
2022-12-25T22:07:05.172Z,6.40
2022-12-25T22:12:21.370Z,6.30
2022-12-25T22:14:51.325Z,6.40
2022-12-25T22:17:40.017Z,6.40
2022-12-25T22:20:09.878Z,6.40
2022-12-25T22:22:36.687Z,6.40
2022-12-25T22:25:05.498Z,6.40
2022-12-25T22:27:34.724Z,6.40
2022-12-25T22:30:01.863Z,6.40
2022-12-25T22:32:29.008Z,6.50
2022-12-25T22:34:55.779Z,6.40
2022-12-25T22:37:22.814Z,6.50
2022-12-25T22:39:49.671Z,6.40
2022-12-25T22:42:16.863Z,6.40
2022-12-25T22:44:43.912Z,6.40
2022-12-25T22:47:10.676Z,6.40
2022-12-25T22:52:24.538Z,6.40
2022-12-25T22:54:51.327Z,6.40
2022-12-25T22:57:18.107Z,6.40
2022-12-25T22:59:44.872Z,6.40
2022-12-25T23:02:11.695Z,6.40
2022-12-25T23:04:38.548Z,6.40
2022-12-25T23:07:05.445Z,6.40
2022-12-25T23:09:32.182Z,6.40
2022-12-25T23:11:59.300Z,6.50
2022-12-25T23:14:26.665Z,6.50
2022-12-25T23:16:53.514Z,6.50
2022-12-25T23:19:20.285Z,6.50
2022-12-25T23:21:47.086Z,6.50
2022-12-25T23:24:14.017Z,6.50
2022-12-25T23:26:40.765Z,6.60
2022-12-25T23:29:07.496Z,6.60
2022-12-25T23:31:36.582Z,6.50
2022-12-25T23:34:05.087Z,6.60
2022-12-25T23:36:32.064Z,6.50
2022-12-25T23:39:04.727Z,6.60
2022-12-25T23:41:33.866Z,6.50
2022-12-25T23:44:00.592Z,6.60
2022-12-25T23:46:27.537Z,6.60
2022-12-25T23:48:54.356Z,6.60
2022-12-25T23:51:21.234Z,6.60
2022-12-25T23:53:48.030Z,6.70
2022-12-25T23:56:14.909Z,6.70
2022-12-25T23:58:41.808Z,6.60
